Time;durP1;ratioP1;P1;durP2;ratioP2;P2;SDS_P1;SDS_P2;PMS_P1;PMS_P2;Temp;Humidity;BMP_temperature;BMP_pressure;BME280_temperature;BME280_humidity;BME280_pressure;Samples;Min_cycle;Max_cycle;Signal;HPM_P1;HPM_P2
2024/01/22 00:00:24;;;;;;;6.05;1.42;;;;;;;-0.13;73.96;100523.44;5019042;28;20468;-78
2024/01/22 00:02:51;;;;;;;5.03;0.68;;;;;;;-0.13;73.62;100509.72;5006511;28;20077;-78
2024/01/22 00:05:18;;;;;;;4.32;0.65;;;;;;;-0.14;73.84;100510.56;5017349;28;20584;-77
2024/01/22 00:07:45;;;;;;;3.88;0.70;;;;;;;-0.14;73.81;100518.28;5017415;28;20078;-78
2024/01/22 00:10:12;;;;;;;0.73;0.60;;;;;;;-0.13;73.77;100522.59;5023634;28;20942;-75
2024/01/22 00:12:39;;;;;;;2.63;0.50;;;;;;;-0.14;74.37;100520.84;5012903;28;20669;-75
2024/01/22 00:15:07;;;;;;;1.98;0.70;;;;;;;-0.14;73.80;100515.72;5018851;28;20128;-77
2024/01/22 00:17:35;;;;;;;1.25;0.70;;;;;;;-0.13;73.94;100527.72;5019459;28;20125;-76
2024/01/22 00:20:03;;;;;;;3.25;0.57;;;;;;;-0.15;74.40;100516.53;5020517;28;20072;-75
2024/01/22 00:22:30;;;;;;;2.60;0.60;;;;;;;-0.13;74.39;100514.88;5018794;28;20419;-75
2024/01/22 00:24:57;;;;;;;5.38;0.80;;;;;;;-0.14;74.15;100506.28;5019285;28;20136;-75
2024/01/22 00:27:24;;;;;;;1.92;0.60;;;;;;;-0.12;74.79;100511.44;5019932;28;20081;-75
2024/01/22 00:29:51;;;;;;;1.88;0.60;;;;;;;-0.11;74.28;100510.63;5011029;28;20790;-75
2024/01/22 00:32:18;;;;;;;5.80;0.98;;;;;;;-0.11;74.90;100502.91;5025228;28;20082;-77
2024/01/22 00:34:46;;;;;;;1.98;0.80;;;;;;;-0.11;74.64;100485.78;5028278;28;20128;-76
2024/01/22 00:37:13;;;;;;;3.53;0.90;;;;;;;-0.10;74.53;100486.63;5014500;28;20124;-75
2024/01/22 00:39:40;;;;;;;4.03;0.50;;;;;;;-0.10;74.57;100479.78;5020536;28;20136;-77
2024/01/22 00:42:07;;;;;;;2.70;0.52;;;;;;;-0.09;74.39;100478.06;5022993;28;20448;-76
2024/01/22 00:44:34;;;;;;;1.27;0.60;;;;;;;-0.11;74.61;100469.47;5020416;28;20144;-75
2024/01/22 00:47:01;;;;;;;3.97;1.05;;;;;;;-0.10;74.63;100460.91;5025593;28;20164;-76
2024/01/22 00:49:28;;;;;;;1.00;0.63;;;;;;;-0.10;74.46;100466.06;5023479;28;20460;-75
2024/01/22 00:51:56;;;;;;;4.85;0.80;;;;;;;-0.10;74.28;100460.91;5021080;28;20125;-76
2024/01/22 00:54:23;;;;;;;1.20;0.60;;;;;;;-0.10;74.64;100455.75;5022861;28;20487;-76
2024/01/22 00:56:50;;;;;;;1.20;0.70;;;;;;;-0.11;74.52;100436.03;5022721;28;20128;-75
2024/01/22 00:59:17;;;;;;;6.50;0.88;;;;;;;-0.11;74.92;100441.19;5023822;28;20631;-75
2024/01/22 01:01:44;;;;;;;4.07;1.10;;;;;;;-0.10;74.95;100424.91;5023095;28;20104;-75
2024/01/22 01:04:11;;;;;;;4.50;1.08;;;;;;;-0.11;74.81;100421.47;5023015;28;20132;-75
2024/01/22 01:06:38;;;;;;;4.22;0.90;;;;;;;-0.10;75.40;100424.91;5023458;28;20145;-75
2024/01/22 01:09:07;;;;;;;2.03;1.23;;;;;;;-0.09;75.21;100408.63;5022025;28;20492;-75
2024/01/22 01:11:34;;;;;;;4.43;0.85;;;;;;;-0.08;75.04;100407.81;5019863;28;20045;-75
2024/01/22 01:14:01;;;;;;;2.25;1.10;;;;;;;-0.09;75.32;100393.19;5022424;28;20571;-75
2024/01/22 01:16:28;;;;;;;2.92;0.95;;;;;;;-0.07;75.58;100388.94;5021115;28;20128;-76
2024/01/22 01:18:55;;;;;;;2.70;0.80;;;;;;;-0.07;75.66;100377.81;5021258;28;20053;-75
2024/01/22 01:21:22;;;;;;;3.45;1.25;;;;;;;-0.06;75.66;100382.09;5024417;28;20515;-77
2024/01/22 01:23:50;;;;;;;2.42;1.15;;;;;;;-0.07;75.55;100372.66;5023693;28;20499;-77
2024/01/22 01:26:18;;;;;;;1.00;0.90;;;;;;;-0.05;75.83;100358.13;5027476;28;20057;-77
2024/01/22 01:28:45;;;;;;;3.70;1.33;;;;;;;-0.04;75.74;100358.13;5019746;28;20041;-76
2024/01/22 01:31:12;;;;;;;4.55;1.63;;;;;;;-0.05;75.86;100346.13;5024266;28;20527;-77
2024/01/22 01:33:39;;;;;;;3.88;1.05;;;;;;;-0.02;75.51;100355.59;5016531;28;20081;-77
2024/01/22 01:36:06;;;;;;;2.45;1.27;;;;;;;0.00;76.09;100347.06;5022962;28;20132;-77
2024/01/22 01:38:33;;;;;;;4.18;1.20;;;;;;;0.00;76.24;100339.34;5022742;28;20080;-77
2024/01/22 01:41:00;;;;;;;5.05;1.00;;;;;;;-0.01;76.56;100337.59;5026142;28;20160;-75
2024/01/22 01:43:28;;;;;;;2.40;0.95;;;;;;;0.02;76.31;100327.34;5023301;28;20140;-75
2024/01/22 01:45:55;;;;;;;2.28;0.77;;;;;;;0.03;76.04;100321.38;5021086;28;20543;-75
2024/01/22 01:48:22;;;;;;;4.30;1.02;;;;;;;0.04;76.34;100323.09;5019726;28;20137;-75
2024/01/22 01:50:50;;;;;;;2.25;1.08;;;;;;;0.06;76.83;100323.13;5019806;28;20121;-75
2024/01/22 01:53:17;;;;;;;3.40;0.77;;;;;;;0.08;76.43;100321.41;5021916;28;20121;-77
2024/01/22 01:55:46;;;;;;;3.10;1.10;;;;;;;0.08;76.55;100312.03;5019951;28;20154;-75
2024/01/22 01:58:15;;;;;;;2.85;1.10;;;;;;;0.09;77.40;100311.16;5021842;28;20134;-75
2024/01/22 02:00:48;;;;;;;5.22;1.27;;;;;;;0.11;77.09;100304.34;5020353;28;20077;-75
2024/01/22 02:03:15;;;;;;;4.25;1.08;;;;;;;0.12;76.92;100289.75;5018801;28;20121;-76
2024/01/22 02:05:42;;;;;;;4.45;1.05;;;;;;;0.13;77.26;100278.63;5017233;28;20590;-76
2024/01/22 02:08:09;;;;;;;3.97;1.25;;;;;;;0.16;77.30;100252.06;5022637;28;20577;-75
2024/01/22 02:10:36;;;;;;;3.88;1.08;;;;;;;0.16;77.08;100240.06;5021971;28;20125;-75
2024/01/22 02:13:04;;;;;;;3.08;1.20;;;;;;;0.19;77.26;100231.50;5026883;28;20129;-75
2024/01/22 02:15:32;;;;;;;5.75;1.35;;;;;;;0.12;77.43;100221.16;5022126;28;20058;-75
2024/01/22 02:18:02;;;;;;;3.42;1.45;;;;;;;0.22;77.21;100221.25;5019373;28;20049;-75
2024/01/22 02:20:29;;;;;;;3.65;1.67;;;;;;;0.24;77.25;100212.72;5021622;28;20125;-75
2024/01/22 02:22:56;;;;;;;7.95;1.50;;;;;;;0.25;76.86;100205.84;5019472;28;20550;-77
2024/01/22 02:25:24;;;;;;;4.13;2.10;;;;;;;0.27;77.53;100209.31;5021760;28;20562;-76
2024/01/22 02:27:51;;;;;;;8.95;2.25;;;;;;;0.28;77.49;100200.72;5021329;28;20129;-75
2024/01/22 02:30:18;;;;;;;6.70;1.95;;;;;;;0.29;77.62;100189.63;5005800;28;20146;-74
2024/01/22 02:32:45;;;;;;;4.90;1.85;;;;;;;0.31;77.70;100187.94;5002046;28;20133;-75
2024/01/22 02:35:12;;;;;;;4.45;1.83;;;;;;;0.32;77.51;100182.78;5001804;28;20049;-74
2024/01/22 02:37:39;;;;;;;4.45;2.85;;;;;;;0.33;77.85;100156.19;5002481;28;20464;-75
2024/01/22 02:40:07;;;;;;;3.80;1.92;;;;;;;0.35;78.25;100148.50;5000913;28;20126;-75
2024/01/22 02:42:35;;;;;;;5.38;2.17;;;;;;;0.35;77.76;100131.34;5003326;28;20050;-74
2024/01/22 02:45:04;;;;;;;4.78;1.85;;;;;;;0.37;77.70;100126.22;4999537;28;20133;-75
2024/01/22 02:47:31;;;;;;;5.38;2.92;;;;;;;0.39;77.68;100115.91;4999919;28;20113;-74
2024/01/22 02:49:58;;;;;;;5.40;2.35;;;;;;;0.41;77.34;100111.66;5002606;28;20137;-78
2024/01/22 02:52:25;;;;;;;8.52;2.80;;;;;;;0.42;78.28;100111.66;5006579;28;20125;-78
2024/01/22 02:54:52;;;;;;;5.28;2.17;;;;;;;0.43;77.77;100105.69;5008924;28;20125;-78
2024/01/22 02:57:19;;;;;;;6.88;2.22;;;;;;;0.45;78.43;100098.84;5009427;28;20121;-78
2024/01/22 02:59:47;;;;;;;6.07;2.42;;;;;;;0.47;78.52;100097.13;5002634;28;20125;-78
2024/01/22 03:02:14;;;;;;;3.65;2.28;;;;;;;0.46;78.23;100079.09;5008903;28;20473;-78
2024/01/22 03:04:41;;;;;;;9.38;3.10;;;;;;;0.48;78.12;100078.28;5008674;28;20077;-78
2024/01/22 03:07:08;;;;;;;6.85;2.28;;;;;;;0.49;78.66;100077.41;5005868;28;20125;-78
2024/01/22 03:09:35;;;;;;;7.32;4.30;;;;;;;0.49;79.02;100067.13;5004540;28;20126;-78
2024/01/22 03:12:02;;;;;;;5.28;2.30;;;;;;;0.50;78.68;100049.94;4996517;28;20474;-78
2024/01/22 03:14:29;;;;;;;5.93;2.47;;;;;;;0.50;78.59;100058.53;5005231;28;20121;-78
2024/01/22 03:16:57;;;;;;;3.30;1.67;;;;;;;0.53;78.84;100043.09;5000587;28;20137;-78
2024/01/22 03:19:24;;;;;;;4.35;1.23;;;;;;;0.54;78.74;100036.28;5004258;28;20473;-79
2024/01/22 03:21:51;;;;;;;5.95;2.97;;;;;;;0.55;78.42;100027.69;5013805;28;20233;-78
2024/01/22 03:24:18;;;;;;;8.77;3.10;;;;;;;0.56;78.65;100007.09;5009906;28;20116;-78
2024/01/22 03:26:45;;;;;;;8.93;3.58;;;;;;;0.57;79.12;99992.53;5004486;28;20125;-79
2024/01/22 03:29:12;;;;;;;7.47;3.45;;;;;;;0.60;78.80;99989.13;5013801;28;20136;-78
2024/01/22 03:31:39;;;;;;;5.15;2.70;;;;;;;0.56;78.66;99983.06;5027700;28;20494;-78
2024/01/22 03:34:07;;;;;;;8.27;3.28;;;;;;;0.60;79.13;99964.22;5025120;28;20540;-78
2024/01/22 03:36:36;;;;;;;8.63;2.45;;;;;;;0.61;79.17;99952.22;5025654;28;20213;-78
2024/01/22 03:39:03;;;;;;;9.57;3.72;;;;;;;0.62;79.39;99953.91;5029645;28;20081;-78
2024/01/22 03:41:30;;;;;;;7.90;2.72;;;;;;;0.61;79.23;99942.78;5022427;28;20045;-75
2024/01/22 03:43:57;;;;;;;8.10;3.13;;;;;;;0.65;79.22;99938.47;5021607;28;20128;-75
2024/01/22 03:46:24;;;;;;;5.85;2.90;;;;;;;0.65;79.62;99925.63;5022724;28;20551;-74
2024/01/22 03:48:51;;;;;;;6.35;3.38;;;;;;;0.66;79.54;99915.34;5017137;28;20096;-74
2024/01/22 03:51:19;;;;;;;2.97;1.88;;;;;;;0.67;79.52;99921.34;5020734;28;20128;-74
2024/01/22 03:53:46;;;;;;;10.57;3.40;;;;;;;0.67;79.47;99931.63;5017311;28;20148;-73
2024/01/22 03:56:13;;;;;;;10.10;3.70;;;;;;;0.68;79.53;99930.78;5023276;28;20144;-74
2024/01/22 03:58:40;;;;;;;3.75;1.65;;;;;;;0.69;79.13;99915.34;5017470;28;20227;-77
2024/01/22 04:01:07;;;;;;;10.00;2.72;;;;;;;0.69;79.49;99909.34;5019663;28;20046;-73
2024/01/22 04:03:35;;;;;;;6.55;2.88;;;;;;;0.71;79.61;99912.78;5019861;28;20133;-73
2024/01/22 04:06:02;;;;;;;2.15;0.93;;;;;;;0.69;79.25;99888.75;5017509;28;20133;-72
2024/01/22 04:08:30;;;;;;;6.55;2.35;;;;;;;0.71;79.34;99874.19;5018191;28;21624;-72
2024/01/22 04:10:57;;;;;;;9.02;2.22;;;;;;;0.71;79.34;99864.72;5001005;28;20045;-72
2024/01/22 04:13:24;;;;;;;6.65;2.28;;;;;;;0.73;79.35;99863.00;5016623;28;20460;-71
2024/01/22 04:15:54;;;;;;;8.40;4.25;;;;;;;0.74;80.07;99866.47;5018067;28;20125;-73
2024/01/22 04:18:20;;;;;;;7.28;3.90;;;;;;;0.74;79.87;99861.31;5017309;28;20504;-72
2024/01/22 04:20:47;;;;;;;2.83;0.80;;;;;;;0.75;80.14;99863.00;5020324;28;20128;-73
2024/01/22 04:23:14;;;;;;;16.38;4.30;;;;;;;0.75;80.31;99843.28;5016671;28;20136;-72
2024/01/22 04:25:43;;;;;;;10.98;3.38;;;;;;;0.76;80.27;99849.28;5020030;28;20156;-72
2024/01/22 04:28:10;;;;;;;9.70;2.78;;;;;;;0.77;80.40;99835.56;5019229;28;20133;-72
2024/01/22 04:30:36;;;;;;;7.63;3.42;;;;;;;0.79;80.22;99828.69;5001151;28;20167;-72
2024/01/22 04:33:04;;;;;;;5.13;1.88;;;;;;;0.80;80.01;99814.97;4993868;28;20169;-73
2024/01/22 04:35:31;;;;;;;5.38;2.38;;;;;;;0.80;80.37;99797.81;4998258;28;20578;-73
2024/01/22 04:37:58;;;;;;;7.30;2.50;;;;;;;0.83;80.68;99809.81;4992316;28;20120;-73
2024/01/22 04:40:25;;;;;;;4.10;2.05;;;;;;;0.84;80.70;99785.78;4998764;28;20482;-72
2024/01/22 04:42:53;;;;;;;11.82;2.55;;;;;;;0.85;80.96;99773.75;4996584;28;20125;-72
2024/01/22 04:45:21;;;;;;;5.95;2.97;;;;;;;0.86;80.99;99755.75;4998821;28;20137;-72
2024/01/22 04:47:48;;;;;;;7.93;2.85;;;;;;;0.88;80.90;99753.16;4999086;28;20980;-72
2024/01/22 04:50:15;;;;;;;5.65;1.63;;;;;;;0.89;80.90;99735.16;4998098;28;20057;-72
2024/01/22 04:52:42;;;;;;;11.05;2.10;;;;;;;0.91;81.04;99724.84;4993423;28;20053;-72
2024/01/22 04:55:09;;;;;;;7.05;1.95;;;;;;;0.91;80.66;99715.41;4999613;28;20133;-72
2024/01/22 04:57:36;;;;;;;5.90;2.28;;;;;;;0.93;81.00;99728.28;4994952;28;20042;-72
2024/01/22 05:00:06;;;;;;;5.82;2.17;;;;;;;0.93;80.84;99713.66;4998993;28;20164;-72
2024/01/22 05:02:33;;;;;;;4.10;1.85;;;;;;;0.94;80.97;99702.53;4996326;28;20526;-72
2024/01/22 05:05:01;;;;;;;7.85;1.75;;;;;;;0.95;80.83;99695.66;4998605;28;20048;-72
2024/01/22 05:07:28;;;;;;;9.00;1.83;;;;;;;0.97;81.64;99686.22;4996507;28;20085;-72
2024/01/22 05:09:58;;;;;;;4.63;1.95;;;;;;;0.98;81.09;99670.75;4994710;28;20129;-72
2024/01/22 05:12:25;;;;;;;6.75;1.88;;;;;;;0.98;81.21;99657.88;5002835;28;20061;-70
2024/01/22 05:14:52;;;;;;;6.20;1.80;;;;;;;1.01;81.21;99649.28;4996242;28;20134;-70
2024/01/22 05:17:21;;;;;;;7.45;2.08;;;;;;;1.02;81.30;99633.84;5001966;28;20054;-70
2024/01/22 05:19:48;;;;;;;4.80;1.65;;;;;;;1.04;81.11;99638.97;5000355;28;20043;-72
2024/01/22 05:22:16;;;;;;;4.05;2.28;;;;;;;1.02;81.74;99620.06;5003153;28;20539;-73
2024/01/22 05:24:42;;;;;;;5.93;2.30;;;;;;;1.06;81.95;99605.50;4995812;28;20514;-72
2024/01/22 05:27:09;;;;;;;6.10;1.70;;;;;;;1.07;81.93;99599.47;5002690;28;20156;-72
2024/01/22 05:29:37;;;;;;;4.55;2.60;;;;;;;1.10;81.54;99565.97;5007872;28;20057;-72
2024/01/22 05:32:04;;;;;;;5.85;2.60;;;;;;;1.10;81.63;99587.44;5021505;28;20053;-72
2024/01/22 05:34:33;;;;;;;5.60;1.85;;;;;;;1.11;82.06;99573.72;5020429;28;20133;-72
2024/01/22 05:36:59;;;;;;;6.70;2.10;;;;;;;1.13;81.91;99563.38;5022195;28;20588;-73
2024/01/22 05:39:27;;;;;;;7.22;2.50;;;;;;;1.15;81.82;99551.38;5020477;28;20137;-72
2024/01/22 05:41:54;;;;;;;10.85;2.92;;;;;;;1.16;82.52;99535.03;5020567;28;20100;-72
2024/01/22 05:44:21;;;;;;;9.10;1.95;;;;;;;1.17;82.09;99536.75;5020018;28;20125;-72
2024/01/22 05:46:48;;;;;;;9.35;3.65;;;;;;;1.18;82.03;99517.84;5021611;28;20046;-72
2024/01/22 05:49:15;;;;;;;11.38;1.70;;;;;;;1.20;81.91;99516.13;5016334;28;20448;-72
2024/01/22 05:51:43;;;;;;;2.13;0.70;;;;;;;1.21;82.06;99494.66;5018833;28;20133;-72
2024/01/22 05:54:10;;;;;;;4.45;1.77;;;;;;;1.23;82.27;99495.50;5013941;28;20209;-72
2024/01/22 05:56:37;;;;;;;9.60;1.42;;;;;;;1.23;82.07;99480.06;5022451;28;20053;-72
2024/01/22 05:59:04;;;;;;;7.10;1.95;;;;;;;1.23;82.17;99470.59;5021393;28;20140;-73
2024/01/22 06:01:31;;;;;;;5.93;2.33;;;;;;;1.25;82.27;99457.72;5027456;28;20057;-75
2024/01/22 06:03:59;;;;;;;8.77;2.35;;;;;;;1.26;82.06;99454.25;5021079;28;20567;-75
2024/01/22 06:06:26;;;;;;;7.63;1.90;;;;;;;1.28;82.43;99436.19;5023346;28;20516;-75
2024/01/22 06:08:55;;;;;;;1.35;0.63;;;;;;;1.28;82.03;99406.16;5018530;28;20571;-75
2024/01/22 06:11:23;;;;;;;7.55;1.90;;;;;;;1.28;82.04;99370.09;5021562;28;20053;-75
2024/01/22 06:13:50;;;;;;;10.43;2.22;;;;;;;1.30;82.57;99383.78;5015936;28;20120;-75
2024/01/22 06:16:17;;;;;;;4.30;1.15;;;;;;;1.32;82.51;99378.66;5020874;28;20084;-76
2024/01/22 06:18:45;;;;;;;6.60;2.13;;;;;;;1.32;82.59;99366.63;5022425;28;20128;-75
2024/01/22 06:21:13;;;;;;;7.53;1.45;;;;;;;1.33;82.53;99381.19;5019424;28;20052;-72
2024/01/22 06:23:40;;;;;;;8.05;2.33;;;;;;;1.34;82.40;99359.72;5019948;28;20488;-72
2024/01/22 06:26:09;;;;;;;5.82;1.10;;;;;;;1.36;82.21;99354.56;5017698;28;20088;-71
2024/01/22 06:28:36;;;;;;;8.85;2.35;;;;;;;1.37;82.47;99346.81;5019970;28;20136;-71
2024/01/22 06:31:04;;;;;;;8.90;2.30;;;;;;;1.38;82.61;99337.38;5016397;28;20125;-71
2024/01/22 06:33:31;;;;;;;7.18;2.78;;;;;;;1.37;82.13;99323.63;5022451;28;20075;-73
2024/01/22 06:35:57;;;;;;;8.23;1.83;;;;;;;1.39;82.20;99318.44;5021191;28;20132;-72
2024/01/22 06:38:25;;;;;;;7.10;1.63;;;;;;;1.38;82.49;99317.59;5019575;28;20569;-72
2024/01/22 06:40:52;;;;;;;2.30;1.33;;;;;;;1.39;82.22;99324.47;5023669;28;20049;-72
2024/01/22 06:43:20;;;;;;;7.22;1.48;;;;;;;1.41;82.41;99319.28;5019328;28;20050;-72
2024/01/22 06:45:47;;;;;;;4.63;1.50;;;;;;;1.41;82.31;99312.41;5020617;28;21231;-73
2024/01/22 06:48:14;;;;;;;7.22;1.48;;;;;;;1.41;82.48;99309.00;5019908;28;20125;-73
2024/01/22 06:50:41;;;;;;;5.57;1.27;;;;;;;1.42;82.44;99306.41;5016720;28;20559;-73
2024/01/22 06:53:08;;;;;;;2.22;1.13;;;;;;;1.41;82.41;99304.69;5018013;28;20140;-73
2024/01/22 06:55:36;;;;;;;2.05;1.40;;;;;;;1.43;82.45;99302.09;5021078;28;20068;-73
2024/01/22 06:58:04;;;;;;;4.25;1.60;;;;;;;1.43;82.18;99289.22;5019784;28;20128;-73
2024/01/22 07:00:33;;;;;;;3.53;1.25;;;;;;;1.42;82.34;99283.22;5019075;28;20141;-73
2024/01/22 07:02:59;;;;;;;3.95;1.25;;;;;;;1.42;82.03;99265.19;5021291;28;20042;-72
2024/01/22 07:05:27;;;;;;;3.60;1.35;;;;;;;1.43;82.03;99258.28;5019285;28;20412;-74
2024/01/22 07:07:54;;;;;;;5.95;1.67;;;;;;;1.42;81.74;99260.03;5019186;28;20053;-72
2024/01/22 07:10:22;;;;;;;4.53;1.00;;;;;;;1.43;81.78;99246.25;5019618;28;20053;-72
2024/01/22 07:12:48;;;;;;;2.92;1.20;;;;;;;1.41;81.51;99240.25;5017702;28;20042;-72
2024/01/22 07:15:16;;;;;;;4.25;0.88;;;;;;;1.41;81.59;99237.69;5018036;28;20152;-72
2024/01/22 07:17:44;;;;;;;2.13;0.60;;;;;;;1.41;81.75;99217.06;5020375;28;20444;-72
2024/01/22 07:20:14;;;;;;;1.35;0.70;;;;;;;1.40;81.70;99223.09;5019675;28;20046;-72
2024/01/22 07:22:42;;;;;;;0.88;0.20;;;;;;;1.41;81.77;99211.06;5020095;28;20061;-72
2024/01/22 07:25:10;;;;;;;3.53;0.47;;;;;;;1.39;81.72;99210.22;5020244;28;20054;-72
2024/01/22 07:27:39;;;;;;;1.98;1.20;;;;;;;1.39;81.78;99202.47;5020447;28;20060;-72
2024/01/22 07:30:09;;;;;;;1.10;0.35;;;;;;;1.38;81.37;99188.75;5019020;28;20065;-73
2024/01/22 07:32:37;;;;;;;1.63;0.50;;;;;;;1.35;81.54;99181.06;5020685;28;20088;-73
2024/01/22 07:35:09;;;;;;;2.35;0.50;;;;;;;1.36;81.47;99175.06;5015064;28;20559;-76
2024/01/22 07:37:37;;;;;;;0.80;0.40;;;;;;;1.35;81.42;99167.31;5016512;28;20053;-77
2024/01/22 07:40:04;;;;;;;1.50;0.50;;;;;;;1.34;81.36;99151.00;5016158;28;20128;-75
2024/01/22 07:42:33;;;;;;;1.55;0.50;;;;;;;1.33;80.98;99151.88;5020160;28;20057;-74
2024/01/22 07:45:01;;;;;;;1.40;0.40;;;;;;;1.32;81.12;99134.72;5014166;28;20042;-75
2024/01/22 07:47:28;;;;;;;1.33;0.40;;;;;;;1.31;80.92;99138.16;5016603;28;20054;-75
2024/01/22 07:49:55;;;;;;;1.50;0.50;;;;;;;1.29;80.93;99127.03;5013664;28;20046;-75
2024/01/22 07:52:24;;;;;;;2.03;0.90;;;;;;;1.29;80.96;99121.88;5018262;28;20077;-75
2024/01/22 07:54:51;;;;;;;3.83;0.82;;;;;;;1.29;81.15;99102.97;5016403;28;20481;-76
2024/01/22 07:57:18;;;;;;;3.47;1.67;;;;;;;1.24;80.93;99105.59;5020091;28;20466;-75
2024/01/22 07:59:46;;;;;;;2.67;0.85;;;;;;;1.27;81.27;99091.84;5017639;28;20959;-75
2024/01/22 08:02:13;;;;;;;4.63;0.93;;;;;;;1.25;81.00;99079.84;5012827;28;20049;-75
2024/01/22 08:04:40;;;;;;;4.45;1.08;;;;;;;1.24;81.32;99085.00;5019036;28;20571;-74
2024/01/22 08:07:07;;;;;;;4.55;1.38;;;;;;;1.23;80.98;99078.16;5019641;28;20049;-75
2024/01/22 08:09:36;;;;;;;1.52;0.22;;;;;;;1.23;81.11;99073.84;5015076;28;20465;-75
2024/01/22 08:12:03;;;;;;;6.22;1.45;;;;;;;1.24;81.19;99064.38;5021442;28;20730;-76
2024/01/22 08:14:30;;;;;;;4.35;1.48;;;;;;;1.23;81.12;99063.53;5018711;28;20492;-75
2024/01/22 08:16:57;;;;;;;4.28;1.25;;;;;;;1.23;81.46;99045.50;5021539;28;20137;-75
2024/01/22 08:19:25;;;;;;;6.47;1.65;;;;;;;1.23;81.43;99030.03;5015610;28;20084;-80
2024/01/22 08:21:51;;;;;;;4.90;1.55;;;;;;;1.18;81.58;99016.38;5019904;28;20077;-78
2024/01/22 08:24:19;;;;;;;4.70;1.42;;;;;;;1.24;81.42;99018.00;5025811;28;20499;-78
2024/01/22 08:26:48;;;;;;;4.22;1.60;;;;;;;1.25;81.55;99004.28;5023636;28;20076;-78
2024/01/22 08:29:15;;;;;;;8.05;3.10;;;;;;;1.21;81.96;98994.88;5025418;28;20053;-82
2024/01/22 08:31:43;;;;;;;6.15;1.55;;;;;;;1.22;81.62;98976.81;5031670;28;20136;-83
2024/01/22 08:34:10;;;;;;;8.25;1.48;;;;;;;1.26;81.34;98982.78;5023010;28;20132;-79
2024/01/22 08:36:37;;;;;;;5.13;1.08;;;;;;;1.27;82.00;98981.06;5022853;28;20128;-80
2024/01/22 08:39:04;;;;;;;4.82;0.90;;;;;;;1.27;81.82;98976.75;5027509;28;20046;-80
2024/01/22 08:41:31;;;;;;;5.90;1.00;;;;;;;1.27;81.77;98945.84;5020484;28;20073;-79
2024/01/22 08:44:01;;;;;;;3.13;0.88;;;;;;;1.27;81.94;98939.84;5020147;28;20125;-80
2024/01/22 08:46:28;;;;;;;6.13;0.70;;;;;;;1.27;81.85;98934.69;5015970;28;20061;-81
2024/01/22 08:48:55;;;;;;;3.35;1.00;;;;;;;1.28;82.12;98913.19;5023702;28;20141;-79
2024/01/22 08:51:22;;;;;;;2.90;0.70;;;;;;;1.27;82.01;98908.91;5022942;28;20073;-77
2024/01/22 08:53:49;;;;;;;2.78;0.50;;;;;;;1.30;81.71;98896.00;5027775;28;20053;-82
2024/01/22 08:56:16;;;;;;;3.47;0.77;;;;;;;1.29;81.82;98902.03;5029727;28;20130;-78
2024/01/22 08:58:43;;;;;;;6.22;0.73;;;;;;;1.29;81.81;98897.72;5028433;28;20187;-78
2024/01/22 09:01:11;;;;;;;2.83;0.90;;;;;;;1.30;81.89;98891.69;5022948;28;20133;-77
2024/01/22 09:03:38;;;;;;;5.53;0.65;;;;;;;1.29;81.91;98866.81;5027646;28;20550;-79
2024/01/22 09:06:05;;;;;;;3.25;1.33;;;;;;;1.31;81.96;98866.78;5025445;28;20050;-80
2024/01/22 09:08:34;;;;;;;6.47;1.00;;;;;;;1.31;82.45;98848.75;5023678;28;20069;-80
2024/01/22 09:11:02;;;;;;;4.47;0.90;;;;;;;1.31;81.99;98833.31;5021055;28;20413;-77
2024/01/22 09:13:28;;;;;;;3.08;0.95;;;;;;;1.32;82.16;98860.75;5031733;28;20060;-78
2024/01/22 09:15:57;;;;;;;8.35;0.75;;;;;;;1.31;82.71;98849.59;5025385;28;20132;-78
2024/01/22 09:18:26;;;;;;;4.45;0.85;;;;;;;1.33;82.11;98845.25;5026525;28;20608;-78
2024/01/22 09:20:54;;;;;;;1.23;0.70;;;;;;;1.34;82.27;98838.41;5017508;28;20227;-81
2024/01/22 09:23:22;;;;;;;6.60;0.80;;;;;;;1.31;82.26;98807.53;5026655;28;20057;-77
2024/01/22 09:25:49;;;;;;;1.48;0.60;;;;;;;1.36;82.24;98805.72;5026706;28;20049;-79
2024/01/22 09:28:16;;;;;;;4.20;0.90;;;;;;;1.37;82.34;98812.59;5029166;28;20053;-81
2024/01/22 09:30:43;;;;;;;6.15;0.80;;;;;;;1.37;82.16;98795.38;5009914;28;20072;-78
2024/01/22 09:33:10;;;;;;;2.10;0.65;;;;;;;1.37;82.35;98792.81;5000161;28;20403;-79
2024/01/22 09:35:40;;;;;;;1.52;0.57;;;;;;;1.36;82.13;98791.13;5010411;28;20046;-78
2024/01/22 09:38:07;;;;;;;6.75;1.52;;;;;;;1.34;82.28;98774.00;5006955;28;20046;-76
2024/01/22 09:40:35;;;;;;;2.22;0.68;;;;;;;1.37;82.04;98756.75;5000485;28;20068;-78
2024/01/22 09:43:04;;;;;;;0.95;0.55;;;;;;;1.39;82.47;98760.16;5004269;28;20045;-77
2024/01/22 09:45:33;;;;;;;3.10;0.50;;;;;;;1.38;82.07;98736.97;5004400;28;20432;-76
2024/01/22 09:48:00;;;;;;;2.85;0.45;;;;;;;1.38;82.12;98748.13;5004931;28;20046;-79
2024/01/22 09:50:28;;;;;;;2.45;0.50;;;;;;;1.38;82.46;98727.50;4996680;28;20043;-78
2024/01/22 09:53:01;;;;;;;0.60;0.40;;;;;;;1.40;82.42;98728.34;4998686;28;20042;-76
2024/01/22 09:55:28;;;;;;;2.10;0.52;;;;;;;1.41;82.32;98726.59;4998109;28;20133;-78
2024/01/22 09:57:59;;;;;;;2.85;0.40;;;;;;;1.40;82.85;98725.75;5005233;28;20114;-75
2024/01/22 10:00:27;;;;;;;2.30;0.50;;;;;;;1.42;82.59;98703.41;4993079;28;20536;-78
2024/01/22 10:02:55;;;;;;;3.28;0.50;;;;;;;1.42;82.47;98694.78;4994992;28;20057;-78
2024/01/22 10:05:22;;;;;;;5.63;0.57;;;;;;;1.43;82.46;98694.78;5006799;28;20387;-78
2024/01/22 10:07:49;;;;;;;5.88;0.60;;;;;;;1.44;82.80;98699.06;5002674;28;20133;-76
2024/01/22 10:10:20;;;;;;;4.22;0.60;;;;;;;1.44;83.18;98678.44;4990432;28;20125;-75
2024/01/22 10:13:04;;;;;;;2.42;0.50;;;;;;;1.47;82.88;98685.25;4999953;28;20045;-80
2024/01/22 10:15:32;;;;;;;1.83;0.70;;;;;;;1.47;83.02;98670.63;5000785;28;20161;-78
2024/01/22 10:18:10;;;;;;;3.90;0.90;;;;;;;1.50;82.79;98666.31;5003449;28;20077;-79
2024/01/22 10:20:38;;;;;;;4.63;0.50;;;;;;;1.48;82.86;98669.78;5005896;28;20050;-77
2024/01/22 10:23:05;;;;;;;3.30;0.40;;;;;;;1.51;83.37;98652.56;4998492;28;20133;-77
2024/01/22 10:25:34;;;;;;;3.85;0.70;;;;;;;1.53;83.07;98663.69;5002156;28;20132;-76
2024/01/22 10:28:12;;;;;;;3.53;0.40;;;;;;;1.53;83.51;98650.78;4993180;28;20125;-80
2024/01/22 10:30:40;;;;;;;2.33;0.45;;;;;;;1.54;83.34;98649.94;5021838;28;20061;-76
2024/01/22 10:33:15;;;;;;;0.68;0.50;;;;;;;1.55;83.77;98629.25;5019848;28;20065;-76
2024/01/22 10:35:42;;;;;;;3.63;0.50;;;;;;;1.57;83.45;98634.41;5018352;28;20125;-77
2024/01/22 10:38:09;;;;;;;2.20;0.40;;;;;;;1.59;83.46;98624.88;5017774;28;20161;-76
2024/01/22 10:40:38;;;;;;;1.05;0.43;;;;;;;1.57;83.34;98613.78;5023646;28;20419;-76
2024/01/22 10:43:24;;;;;;;1.30;0.28;;;;;;;1.61;83.51;98593.03;5022061;28;20132;-76
2024/01/22 10:45:51;;;;;;;4.55;0.40;;;;;;;1.62;83.61;98593.91;5022153;28;20057;-77
2024/01/22 10:48:20;;;;;;;0.38;0.30;;;;;;;1.64;83.78;98594.72;5017064;28;20795;-79
2024/01/22 10:50:48;;;;;;;2.05;0.80;;;;;;;1.60;83.99;98557.84;5015597;28;20703;-76
2024/01/22 10:53:16;;;;;;;2.15;0.77;;;;;;;1.68;83.45;98570.59;5016891;28;20093;-76
2024/01/22 10:55:54;;;;;;;1.08;0.40;;;;;;;1.68;83.81;98568.00;5015973;28;20125;-77
2024/01/22 10:58:26;;;;;;;7.90;0.60;;;;;;;1.70;84.00;98563.66;5021845;28;20156;-77
2024/01/22 11:01:01;;;;;;;4.72;0.50;;;;;;;1.72;84.02;98553.31;5021199;28;20793;-75
2024/01/22 11:03:28;;;;;;;;;;;;;;;1.74;83.84;98547.25;5019023;28;20132;-75
2024/01/22 11:05:59;;;;;;;1.70;0.50;;;;;;;1.74;83.78;98538.66;5020785;28;19921;-75
2024/01/22 11:08:30;;;;;;;3.75;0.50;;;;;;;1.75;83.95;98536.03;5018553;28;20060;-75
2024/01/22 11:11:00;;;;;;;4.10;0.63;;;;;;;1.75;84.14;98512.84;5020614;28;20046;-76
2024/01/22 11:13:29;;;;;;;3.92;0.47;;;;;;;1.80;84.02;98515.31;5017782;28;20050;-75
2024/01/22 11:15:57;;;;;;;3.22;0.50;;;;;;;1.80;84.00;98523.91;5015841;28;20148;-75
2024/01/22 11:18:24;;;;;;;3.55;0.60;;;;;;;1.82;83.78;98522.13;5016652;28;20560;-75
2024/01/22 11:21:18;;;;;;;3.10;0.70;;;;;;;1.85;83.79;98510.91;5022414;28;20124;-76
2024/01/22 11:24:04;;;;;;;2.50;0.57;;;;;;;1.86;84.12;98533.22;5021372;28;20042;-75
2024/01/22 11:26:33;;;;;;;8.90;1.48;;;;;;;1.86;83.87;98521.16;5018552;28;20046;-75
2024/01/22 11:29:07;;;;;;;8.35;0.68;;;;;;;1.90;84.13;98520.22;5015531;28;20800;-75
2024/01/22 11:31:35;;;;;;;6.68;1.90;;;;;;;1.90;83.96;98524.53;4998269;28;20092;-75
2024/01/22 11:34:03;;;;;;;1.25;0.50;;;;;;;1.89;84.11;98500.47;5001046;28;20054;-75
2024/01/22 11:36:53;;;;;;;7.28;0.60;;;;;;;1.95;83.89;98496.06;4997665;28;20046;-75
2024/01/22 11:39:42;;;;;;;4.68;0.60;;;;;;;1.97;84.25;98508.03;4995640;28;20101;-75
2024/01/22 11:42:28;;;;;;;1.10;0.50;;;;;;;1.99;84.21;98500.25;5001804;28;20042;-77